createdAt,value
2019-05-28T00:00:26.251Z,11.48
2019-05-28T00:03:15.399Z,11.15
2019-05-28T00:05:46.707Z,11.95
2019-05-28T00:08:18.214Z,11.30
2019-05-28T00:10:49.504Z,11.78
2019-05-28T00:13:21.112Z,13.00
2019-05-28T00:15:52.426Z,12.13
2019-05-28T00:18:23.706Z,10.90
2019-05-28T00:20:54.949Z,11.60
2019-05-28T00:23:26.220Z,10.88
2019-05-28T00:25:57.548Z,9.23
2019-05-28T00:28:28.972Z,10.05
2019-05-28T00:31:00.290Z,10.90
2019-05-28T00:33:31.664Z,10.20
2019-05-28T00:36:03.092Z,9.30
2019-05-28T00:38:34.426Z,11.10
2019-05-28T00:41:07.009Z,11.22
2019-05-28T00:43:38.313Z,12.63
2019-05-28T00:46:09.734Z,12.98
2019-05-28T00:48:41.043Z,13.10
2019-05-28T00:51:12.395Z,13.28
2019-05-28T00:53:43.805Z,14.18
2019-05-28T00:56:15.813Z,14.98
2019-05-28T00:58:47.572Z,14.18
2019-05-28T01:01:19.001Z,14.83
2019-05-28T01:03:50.244Z,15.20
2019-05-28T01:06:21.685Z,14.98
2019-05-28T01:08:52.927Z,14.45
2019-05-28T01:11:24.237Z,14.30
2019-05-28T01:13:55.576Z,14.75
2019-05-28T01:16:26.814Z,15.18
2019-05-28T01:18:58.086Z,15.25
2019-05-28T01:21:29.470Z,15.38
2019-05-28T01:24:00.887Z,15.85
2019-05-28T01:26:32.132Z,15.95
2019-05-28T01:29:03.564Z,15.43
2019-05-28T01:31:34.797Z,14.18
2019-05-28T01:34:06.209Z,14.18
2019-05-28T01:36:37.488Z,14.00
2019-05-28T01:39:08.803Z,13.83
2019-05-28T01:41:40.180Z,14.78
2019-05-28T01:44:11.411Z,14.55
2019-05-28T01:46:42.682Z,15.05
2019-05-28T01:49:14.109Z,13.78
2019-05-28T01:51:45.355Z,11.57
2019-05-28T01:54:16.597Z,13.35
2019-05-28T01:56:48.026Z,13.83
2019-05-28T01:59:19.267Z,13.95
2019-05-28T02:01:50.509Z,14.78
2019-05-28T02:04:21.859Z,13.53
2019-05-28T02:06:53.102Z,13.15
2019-05-28T02:09:24.367Z,13.93
2019-05-28T02:11:55.681Z,14.15
2019-05-28T02:14:26.945Z,12.82
2019-05-28T02:16:58.217Z,11.03
2019-05-28T02:19:29.475Z,11.97
2019-05-28T02:22:00.807Z,14.03
2019-05-28T02:24:32.122Z,11.43
2019-05-28T02:27:03.625Z,14.35
2019-05-28T02:29:34.944Z,14.60
2019-05-28T02:32:06.357Z,14.55
2019-05-28T02:34:41.124Z,13.43
2019-05-28T02:37:12.431Z,14.90
2019-05-28T02:39:43.704Z,13.28
2019-05-28T02:42:15.093Z,15.28
2019-05-28T02:44:46.520Z,15.25
2019-05-28T02:47:17.840Z,14.30
2019-05-28T02:49:49.116Z,14.75
2019-05-28T02:52:21.135Z,15.95
2019-05-28T02:54:52.780Z,16.23
2019-05-28T02:57:25.705Z,15.40
2019-05-28T03:00:00.383Z,14.95
2019-05-28T03:02:33.750Z,17.20
2019-05-28T03:05:06.495Z,17.45
2019-05-28T03:07:41.977Z,16.95
2019-05-28T03:10:13.533Z,15.83
2019-05-28T03:12:44.904Z,16.67
2019-05-28T03:15:16.207Z,16.48
2019-05-28T03:17:49.145Z,17.45
2019-05-28T03:20:21.502Z,16.20
2019-05-28T03:22:53.548Z,15.65
2019-05-28T03:25:25.346Z,15.15
2019-05-28T03:27:56.617Z,21.33
2019-05-28T03:30:28.026Z,16.23
2019-05-28T03:32:59.446Z,17.27
2019-05-28T03:35:31.966Z,16.37
2019-05-28T03:38:04.180Z,16.32
2019-05-28T03:40:47.056Z,17.67
2019-05-28T03:43:18.536Z,17.42
2019-05-28T03:45:49.848Z,17.77
2019-05-28T03:48:21.329Z,17.45
2019-05-28T03:50:52.595Z,18.85
2019-05-28T03:53:23.887Z,18.45
2019-05-28T03:55:55.130Z,19.40
2019-05-28T03:58:26.443Z,17.77
2019-05-28T04:00:57.716Z,18.32
2019-05-28T04:03:30.652Z,18.37
2019-05-28T04:06:01.933Z,18.17
2019-05-28T04:08:34.931Z,19.57
2019-05-28T04:11:14.914Z,19.85
2019-05-28T04:14:07.278Z,19.35
2019-05-28T04:16:38.691Z,19.75
2019-05-28T04:19:10.177Z,21.80
2019-05-28T04:21:43.149Z,18.40
2019-05-28T04:24:14.656Z,21.12
2019-05-28T04:26:46.065Z,20.23
2019-05-28T04:29:17.928Z,21.10
2019-05-28T04:31:49.296Z,20.62
2019-05-28T04:34:20.778Z,21.27
2019-05-28T04:36:52.217Z,19.37
2019-05-28T04:39:23.702Z,20.35
2019-05-28T04:41:54.979Z,20.92
2019-05-28T04:44:26.759Z,20.60
2019-05-28T04:46:58.062Z,21.07
2019-05-28T04:49:30.426Z,21.30
2019-05-28T04:52:01.842Z,20.90
2019-05-28T04:54:33.187Z,20.17
2019-05-28T04:57:04.530Z,21.33
2019-05-28T04:59:35.973Z,20.23
2019-05-28T05:02:07.391Z,18.42
2019-05-28T05:04:38.920Z,18.12
2019-05-28T05:07:10.343Z,18.67
2019-05-28T05:09:41.638Z,17.52
2019-05-28T05:12:13.016Z,17.37
2019-05-28T05:14:44.419Z,17.87
2019-05-28T05:17:15.698Z,18.50
2019-05-28T05:19:47.074Z,19.20
2019-05-28T05:22:18.363Z,19.87
2019-05-28T05:24:49.727Z,19.37
2019-05-28T05:27:21.219Z,19.35
2019-05-28T05:29:52.561Z,18.17
2019-05-28T05:32:27.661Z,19.15
2019-05-28T05:34:57.150Z,20.08
2019-05-28T05:37:28.601Z,20.32
2019-05-28T05:40:00.148Z,20.45
2019-05-28T05:42:31.618Z,17.82
2019-05-28T05:45:08.130Z,20.32
2019-05-28T05:47:40.197Z,21.17
2019-05-28T05:50:11.957Z,20.97
2019-05-28T05:52:45.745Z,17.52
2019-05-28T05:55:17.725Z,18.32
2019-05-28T05:57:49.998Z,19.05
2019-05-28T06:00:23.054Z,17.92
2019-05-28T06:02:54.741Z,17.50
2019-05-28T06:05:26.331Z,16.77
2019-05-28T06:07:57.786Z,17.15
2019-05-28T06:10:33.128Z,16.87
2019-05-28T06:13:05.085Z,14.55
2019-05-28T06:15:41.210Z,13.43
2019-05-28T06:18:12.921Z,13.65
2019-05-28T06:20:44.396Z,13.43
2019-05-28T06:23:16.084Z,11.68
2019-05-28T06:25:47.521Z,14.45
2019-05-28T06:28:18.940Z,12.75
2019-05-28T06:30:50.336Z,12.50
2019-05-28T06:33:21.796Z,14.07
2019-05-28T06:35:53.485Z,13.05
2019-05-28T06:38:26.580Z,13.48
2019-05-28T06:41:01.682Z,13.78
2019-05-28T06:43:34.100Z,12.70
2019-05-28T06:46:06.204Z,12.25
2019-05-28T06:48:37.665Z,11.33
2019-05-28T06:51:09.120Z,12.35
2019-05-28T06:53:41.726Z,11.10
2019-05-28T06:56:13.086Z,11.18
2019-05-28T06:58:44.405Z,11.43
2019-05-28T07:01:15.732Z,10.90
2019-05-28T07:03:47.107Z,9.95
2019-05-28T07:06:18.574Z,10.45
2019-05-28T07:08:50.021Z,10.05
2019-05-28T07:11:21.572Z,10.25
2019-05-28T07:13:53.961Z,9.00
2019-05-28T07:16:26.942Z,8.68
2019-05-28T07:18:58.313Z,8.10
2019-05-28T07:21:30.840Z,8.13
2019-05-28T07:24:05.138Z,8.03
2019-05-28T07:26:37.781Z,7.08
2019-05-28T07:29:09.193Z,7.10
2019-05-28T07:31:46.526Z,7.20
2019-05-28T07:34:30.293Z,7.10
2019-05-28T07:36:55.374Z,6.20
2019-05-28T07:39:26.892Z,6.62
2019-05-28T07:41:58.220Z,6.47
2019-05-28T07:44:29.589Z,6.12
2019-05-28T07:47:01.043Z,5.47
2019-05-28T07:49:32.395Z,5.95
2019-05-28T07:52:03.853Z,5.50
2019-05-28T07:54:35.145Z,5.15
2019-05-28T07:57:06.887Z,5.60
2019-05-28T07:59:39.044Z,5.12
2019-05-28T08:02:10.458Z,4.95
2019-05-28T08:04:47.221Z,5.80
2019-05-28T08:07:15.535Z,5.60
2019-05-28T08:09:48.939Z,6.40
2019-05-28T08:12:20.810Z,6.75
2019-05-28T08:14:52.382Z,5.83
2019-05-28T08:17:23.856Z,6.25
2019-05-28T08:19:55.339Z,7.75
2019-05-28T08:22:40.851Z,6.53
2019-05-28T08:25:01.104Z,6.20
2019-05-28T08:27:32.532Z,7.05
2019-05-28T08:30:05.237Z,6.20
2019-05-28T08:32:36.825Z,5.78
2019-05-28T08:35:09.256Z,5.60
2019-05-28T08:37:52.792Z,4.22
2019-05-28T08:47:36.937Z,3.00
2019-05-28T08:50:49.729Z,3.08
2019-05-28T08:53:22.820Z,3.10
2019-05-28T08:55:54.779Z,2.72
2019-05-28T08:58:26.344Z,2.47
2019-05-28T09:00:58.782Z,2.20
2019-05-28T09:03:30.081Z,2.00
2019-05-28T09:06:01.542Z,1.60
2019-05-28T09:08:39.263Z,2.50
2019-05-28T09:11:05.950Z,1.80
2019-05-28T09:13:37.460Z,1.60
2019-05-28T09:16:08.893Z,1.30
2019-05-28T09:18:40.186Z,1.47
2019-05-28T09:21:11.670Z,1.47
2019-05-28T09:23:42.948Z,1.52
2019-05-28T09:26:14.402Z,1.52
2019-05-28T09:28:45.938Z,1.50
2019-05-28T09:31:17.499Z,1.50
2019-05-28T09:33:48.924Z,1.85
2019-05-28T09:36:21.819Z,1.98
2019-05-28T09:38:53.133Z,1.62
2019-05-28T09:41:24.628Z,1.70
2019-05-28T09:43:56.173Z,1.40
2019-05-28T09:46:27.613Z,1.40
2019-05-28T09:48:58.958Z,1.60
2019-05-28T09:51:30.479Z,2.00
2019-05-28T09:54:01.889Z,1.37
2019-05-28T09:56:33.466Z,1.62
2019-05-28T09:59:04.922Z,1.50
2019-05-28T10:01:37.380Z,1.62
2019-05-28T10:04:08.939Z,1.30
2019-05-28T10:06:41.754Z,1.47
2019-05-28T10:09:14.290Z,1.42
2019-05-28T10:11:45.540Z,1.30
2019-05-28T10:14:16.866Z,1.40
2019-05-28T10:16:48.098Z,1.50
2019-05-28T10:19:19.386Z,1.50
2019-05-28T10:21:50.609Z,1.47
2019-05-28T10:24:21.884Z,1.77
2019-05-28T10:26:53.188Z,1.20
2019-05-28T10:29:24.592Z,1.67
2019-05-28T10:31:55.827Z,1.35
2019-05-28T10:34:27.271Z,1.40
2019-05-28T10:36:58.544Z,1.30
2019-05-28T10:39:29.914Z,1.15
2019-05-28T10:42:01.240Z,1.45
2019-05-28T10:44:32.464Z,1.10
2019-05-28T10:47:04.868Z,1.37
2019-05-28T10:49:36.173Z,1.30
2019-05-28T10:52:07.699Z,1.45
2019-05-28T10:54:38.995Z,1.10
2019-05-28T10:57:10.508Z,1.67
2019-05-28T10:59:41.741Z,1.75
2019-05-28T11:02:13.040Z,1.40
2019-05-28T11:04:44.317Z,1.80
2019-05-28T11:07:15.775Z,1.57
2019-05-28T11:09:48.216Z,1.52
2019-05-28T11:12:20.681Z,1.80
2019-05-28T11:14:52.004Z,1.32
2019-05-28T11:17:23.515Z,1.40
2019-05-28T11:19:54.868Z,1.00
2019-05-28T11:22:26.321Z,1.25
2019-05-28T11:24:57.815Z,1.32
2019-05-28T11:27:29.302Z,1.57
2019-05-28T11:30:01.150Z,1.40
2019-05-28T11:32:32.585Z,1.30
2019-05-28T11:35:05.034Z,1.62
2019-05-28T11:37:36.289Z,1.40
2019-05-28T11:40:12.445Z,1.80
2019-05-28T11:42:43.828Z,1.77
2019-05-28T11:45:17.896Z,1.67
2019-05-28T11:47:51.499Z,1.40
2019-05-28T11:50:23.197Z,1.50
2019-05-28T11:53:04.437Z,1.37
2019-05-28T11:55:35.673Z,1.60
2019-05-28T11:58:07.155Z,1.70
2019-05-28T12:00:39.013Z,1.00
2019-05-28T12:03:11.385Z,1.30
2019-05-28T12:05:42.768Z,1.77
2019-05-28T12:08:14.024Z,1.47
2019-05-28T12:10:45.322Z,2.05
2019-05-28T12:13:16.670Z,1.90
2019-05-28T12:15:47.897Z,1.62
2019-05-28T12:18:19.513Z,1.60
2019-05-28T12:20:50.893Z,1.40
2019-05-28T12:23:22.141Z,1.50
2019-05-28T12:25:53.370Z,1.62
2019-05-28T12:28:37.161Z,1.37
2019-05-28T12:30:57.560Z,1.52
2019-05-28T12:33:38.678Z,1.72
2019-05-28T12:36:11.054Z,2.10
2019-05-28T12:38:42.609Z,1.45
2019-05-28T12:41:13.931Z,1.65
2019-05-28T12:43:45.291Z,1.20
2019-05-28T12:46:16.856Z,1.32
2019-05-28T12:48:48.121Z,1.10
2019-05-28T12:51:19.379Z,1.57
2019-05-28T12:53:51.607Z,1.40
2019-05-28T12:56:23.165Z,1.30
2019-05-28T12:58:58.243Z,1.35
2019-05-28T13:01:29.500Z,1.47
2019-05-28T13:04:00.835Z,1.60
2019-05-28T13:06:32.128Z,1.40
2019-05-28T13:09:05.194Z,1.65
2019-05-28T13:11:36.612Z,1.57
2019-05-28T13:14:08.866Z,1.60
2019-05-28T13:16:42.076Z,1.52
2019-05-28T13:19:13.542Z,1.45
2019-05-28T13:21:44.770Z,1.70
2019-05-28T13:24:16.328Z,1.80
2019-05-28T13:26:49.518Z,1.45
2019-05-28T13:29:22.719Z,2.00
2019-05-28T13:31:55.757Z,1.60
2019-05-28T13:34:27.079Z,1.52
2019-05-28T13:36:58.456Z,1.90
2019-05-28T13:39:29.772Z,1.57
2019-05-28T13:42:01.173Z,1.70
2019-05-28T13:44:32.529Z,2.00
2019-05-28T13:47:03.761Z,1.42
2019-05-28T13:49:35.091Z,1.57
2019-05-28T13:52:12.102Z,0.95
2019-05-28T13:54:39.499Z,1.50
2019-05-28T13:57:10.810Z,1.00
2019-05-28T13:59:42.156Z,1.37
2019-05-28T14:02:13.534Z,1.22
2019-05-28T14:04:44.857Z,1.20
2019-05-28T14:07:16.091Z,0.95
2019-05-28T14:09:47.380Z,1.60
2019-05-28T14:12:18.744Z,1.20
2019-05-28T14:14:50.020Z,0.90
2019-05-28T14:17:21.305Z,0.78
2019-05-28T14:19:52.841Z,0.90
2019-05-28T14:22:33.430Z,0.90
2019-05-28T14:24:57.291Z,0.70
2019-05-28T14:27:28.556Z,0.82
2019-05-28T14:29:59.793Z,1.20
2019-05-28T14:32:31.179Z,1.07
2019-05-28T14:35:02.465Z,0.88
2019-05-28T14:37:33.755Z,0.93
2019-05-28T14:40:07.072Z,0.93
2019-05-28T14:42:38.580Z,0.70
2019-05-28T14:45:10.757Z,0.60
2019-05-28T14:47:42.196Z,0.82
2019-05-28T14:50:13.860Z,1.07
2019-05-28T14:52:45.369Z,0.90
2019-05-28T14:55:18.633Z,1.10
2019-05-28T14:57:50.133Z,0.88
2019-05-28T15:00:23.632Z,0.90
2019-05-28T15:02:54.925Z,0.75
2019-05-28T15:05:30.074Z,0.75
2019-05-28T15:08:01.299Z,1.62
2019-05-28T15:10:32.686Z,1.00
2019-05-28T15:13:04.210Z,1.12
2019-05-28T15:15:36.620Z,1.00
2019-05-28T15:18:08.046Z,1.10
2019-05-28T15:20:39.418Z,1.00
2019-05-28T15:23:11.163Z,1.02
2019-05-28T15:25:42.473Z,1.20
2019-05-28T15:28:13.979Z,0.90
2019-05-28T15:30:45.283Z,0.90
2019-05-28T15:33:16.743Z,0.93
2019-05-28T15:35:48.258Z,1.05
2019-05-28T15:38:19.637Z,1.05
2019-05-28T15:40:51.139Z,4.00
2019-05-28T15:43:24.296Z,1.50
2019-05-28T15:45:55.848Z,1.20
2019-05-28T15:48:27.408Z,1.10
2019-05-28T15:50:58.932Z,1.02
2019-05-28T15:53:30.230Z,1.00
2019-05-28T15:56:01.638Z,1.20
2019-05-28T15:58:33.948Z,0.88
2019-05-28T16:01:05.410Z,0.90
2019-05-28T16:03:36.725Z,0.72
2019-05-28T16:06:08.237Z,0.80
2019-05-28T16:08:39.552Z,0.70
2019-05-28T16:11:10.895Z,1.00
2019-05-28T16:13:42.262Z,0.80
2019-05-28T16:16:15.055Z,0.62
2019-05-28T16:18:46.424Z,0.60
2019-05-28T16:21:18.081Z,0.72
2019-05-28T16:23:53.854Z,0.80
2019-05-28T16:26:25.409Z,0.70
2019-05-28T16:28:56.758Z,0.80
2019-05-28T16:31:29.095Z,0.60
2019-05-28T16:34:00.642Z,0.80
2019-05-28T16:36:31.960Z,0.90
2019-05-28T16:39:03.499Z,2.80
2019-05-28T16:41:35.720Z,0.93
2019-05-28T16:44:08.027Z,0.60
2019-05-28T16:46:48.165Z,0.75
2019-05-28T16:49:19.646Z,0.70
2019-05-28T16:51:50.979Z,0.60
2019-05-28T16:54:22.262Z,0.90
2019-05-28T16:56:53.731Z,0.70
2019-05-28T16:59:25.023Z,1.00
2019-05-28T17:01:56.307Z,1.50
2019-05-28T17:04:27.894Z,1.00
2019-05-28T17:06:59.519Z,0.80
2019-05-28T17:09:30.926Z,1.02
2019-05-28T17:12:02.504Z,0.60
2019-05-28T17:14:34.826Z,0.70
2019-05-28T17:17:06.386Z,0.82
2019-05-28T17:19:38.073Z,0.70
2019-05-28T17:22:09.402Z,0.70
2019-05-28T17:24:40.941Z,0.70
2019-05-28T17:27:12.302Z,0.70
2019-05-28T17:29:43.689Z,0.75
2019-05-28T17:32:15.148Z,0.90
2019-05-28T17:34:46.558Z,0.60
2019-05-28T17:37:17.913Z,0.78
2019-05-28T17:39:49.407Z,0.80
2019-05-28T17:42:20.760Z,0.70
2019-05-28T17:44:52.298Z,0.82
2019-05-28T17:47:27.666Z,0.60
2019-05-28T17:50:00.045Z,0.70
2019-05-28T17:52:31.550Z,0.70
2019-05-28T17:55:07.657Z,0.50
2019-05-28T17:57:45.079Z,0.60
2019-05-28T18:00:17.281Z,0.50
2019-05-28T18:02:48.984Z,0.88
2019-05-28T18:05:20.590Z,0.57
2019-05-28T18:07:51.907Z,0.80
2019-05-28T18:10:23.735Z,0.60
2019-05-28T18:12:55.121Z,0.60
2019-05-28T18:15:26.531Z,0.60
2019-05-28T18:17:57.852Z,0.93
2019-05-28T18:20:29.400Z,0.82
2019-05-28T18:23:01.225Z,0.47
2019-05-28T18:25:32.620Z,0.70
2019-05-28T18:28:04.128Z,0.72
2019-05-28T18:30:35.518Z,0.60
2019-05-28T18:33:06.844Z,0.60
2019-05-28T18:35:38.220Z,0.78
2019-05-28T18:38:09.683Z,0.68
2019-05-28T18:40:41.020Z,0.53
2019-05-28T18:43:12.350Z,0.70
2019-05-28T18:45:43.859Z,0.50
2019-05-28T18:48:15.994Z,0.88
2019-05-28T18:50:47.722Z,0.62
2019-05-28T18:53:19.218Z,8.48
2019-05-28T18:55:53.714Z,1.30
2019-05-28T18:58:25.095Z,0.75
2019-05-28T19:00:56.562Z,0.70
2019-05-28T19:03:32.865Z,0.85
2019-05-28T19:06:04.357Z,0.80
2019-05-28T19:08:46.111Z,0.70
2019-05-28T19:11:17.472Z,0.78
2019-05-28T19:13:48.777Z,0.93
2019-05-28T19:16:20.252Z,1.25
2019-05-28T19:18:51.576Z,0.60
2019-05-28T19:21:23.130Z,0.75
2019-05-28T19:23:54.495Z,0.72
2019-05-28T19:26:26.812Z,0.70
2019-05-28T19:28:58.997Z,0.80
2019-05-28T19:31:30.478Z,0.93
2019-05-28T19:34:02.118Z,0.75
2019-05-28T19:36:34.049Z,0.80
2019-05-28T19:39:08.080Z,0.80
2019-05-28T19:41:53.814Z,0.80
2019-05-28T19:44:14.386Z,0.60
2019-05-28T19:46:45.681Z,0.70
2019-05-28T19:49:18.359Z,0.80
2019-05-28T19:51:49.973Z,0.62
2019-05-28T19:54:38.178Z,1.00
2019-05-28T19:57:03.243Z,0.60
2019-05-28T19:59:34.761Z,0.80
2019-05-28T20:02:06.457Z,0.70
2019-05-28T20:04:38.114Z,0.80
2019-05-28T20:07:09.528Z,0.93
2019-05-28T20:09:41.021Z,0.90
2019-05-28T20:12:13.309Z,0.78
2019-05-28T20:14:44.679Z,0.80
2019-05-28T20:17:16.027Z,0.70
2019-05-28T20:19:47.733Z,0.90
2019-05-28T20:22:19.348Z,0.80
2019-05-28T20:24:52.605Z,0.70
2019-05-28T20:27:24.226Z,0.88
2019-05-28T20:29:56.205Z,0.82
2019-05-28T20:32:27.937Z,0.85
2019-05-28T20:35:01.336Z,0.88
2019-05-28T20:37:32.943Z,0.90
2019-05-28T20:40:05.962Z,0.90
2019-05-28T20:42:38.358Z,1.07
2019-05-28T20:45:12.244Z,0.85
2019-05-28T20:47:43.688Z,0.72
2019-05-28T20:50:16.637Z,0.95
2019-05-28T20:52:47.900Z,0.98
2019-05-28T20:55:19.993Z,1.10
2019-05-28T20:57:51.483Z,1.02
2019-05-28T21:00:22.943Z,1.00
2019-05-28T21:02:54.461Z,1.12
2019-05-28T21:05:25.757Z,1.42
2019-05-28T21:07:58.297Z,1.10
2019-05-28T21:10:30.773Z,1.12
2019-05-28T21:13:02.181Z,1.40
2019-05-28T21:15:33.586Z,1.30
2019-05-28T21:18:04.993Z,1.80
2019-05-28T21:20:36.521Z,1.30
2019-05-28T21:23:08.241Z,1.40
2019-05-28T21:25:39.543Z,1.20
2019-05-28T21:28:10.855Z,1.50
2019-05-28T21:30:42.143Z,1.80
2019-05-28T21:33:13.413Z,1.50
2019-05-28T21:35:44.679Z,1.62
2019-05-28T21:38:15.986Z,1.75
2019-05-28T21:40:47.268Z,1.80
2019-05-28T21:43:18.653Z,1.72
2019-05-28T21:45:50.272Z,1.82
2019-05-28T21:48:21.604Z,2.08
2019-05-28T21:50:54.533Z,2.10
2019-05-28T21:53:27.076Z,1.82
2019-05-28T21:55:59.342Z,1.80
2019-05-28T21:58:30.698Z,2.02
2019-05-28T22:01:12.654Z,1.87
2019-05-28T22:03:44.166Z,1.80
2019-05-28T22:06:16.689Z,2.05
2019-05-28T22:08:49.062Z,2.10
2019-05-28T22:11:20.350Z,2.20
2019-05-28T22:13:51.697Z,2.33
2019-05-28T22:16:23.097Z,2.20
2019-05-28T22:18:54.364Z,2.60
2019-05-28T22:21:25.751Z,2.72
2019-05-28T22:23:58.298Z,2.20
2019-05-28T22:26:29.695Z,2.67
2019-05-28T22:29:01.626Z,2.80
2019-05-28T22:31:33.156Z,2.42
2019-05-28T22:34:05.265Z,2.52
2019-05-28T22:36:36.734Z,3.02
2019-05-28T22:39:09.135Z,2.95
2019-05-28T22:41:42.715Z,2.92
2019-05-28T22:44:14.094Z,3.37
2019-05-28T22:46:45.435Z,3.05
2019-05-28T22:49:16.821Z,3.60
2019-05-28T22:51:48.166Z,3.83
2019-05-28T22:54:19.437Z,3.65
2019-05-28T22:56:50.751Z,3.67
2019-05-28T22:59:22.036Z,4.35
2019-05-28T23:01:53.381Z,4.40
2019-05-28T23:04:24.711Z,4.60
2019-05-28T23:06:56.013Z,4.83
2019-05-28T23:09:27.344Z,5.42
2019-05-28T23:11:59.636Z,5.80
2019-05-28T23:14:30.980Z,6.37
2019-05-28T23:17:04.159Z,5.85
2019-05-28T23:19:36.500Z,6.40
2019-05-28T23:22:08.988Z,6.17
2019-05-28T23:24:40.345Z,6.45
2019-05-28T23:27:13.499Z,7.03
2019-05-28T23:29:44.799Z,6.70
2019-05-28T23:32:16.092Z,6.92
2019-05-28T23:34:47.391Z,6.12
2019-05-28T23:37:18.813Z,6.70
2019-05-28T23:39:50.418Z,6.17
2019-05-28T23:42:21.736Z,6.22
2019-05-28T23:44:53.121Z,6.60
2019-05-28T23:47:24.527Z,7.28
2019-05-28T23:49:55.912Z,7.08
2019-05-28T23:52:27.314Z,6.85
2019-05-28T23:54:58.671Z,7.12
2019-05-28T23:57:30.068Z,7.55
